Etusivu
METAR-TAF:

METAR-TAF

Lentoasemat :

Djanet, Algeria

Leveyspiiri: 24-33N, Pituuspiiri: 009-28E, korkeus merenpinnasta: 1054 m

Tämänhetkinen sää

Tämä raportti tehtiin 1 tunti ja 8 minuuttia sitten, kello 05.00 UTC
Tuuli 4 kn pohjoisesta
Lämpötila 17°C
Kosteus 27%
Ilmanpaine 1022 hPa
Näkyvyys 10 km tai enemmän
ei pilviä alle 1500 m:ssä eikä cumulonimbus-pilviä

METAR: DAAJ 220500Z 01004KT CAVOK 17/M02 Q1022

Aika: 07:08 (06:08 UTC)

Sääennuste

Tämä raportti tehtiin 1 tunti ja 8 minuuttia sitten, kello 05.00 UTC
Ennuste voimassa 22. päivästä klo 06 UTC - 23. päivään klo 06 UTC
Tuuli 6 kn idästä/kaakosta
Näkyvyys 10 km tai enemmän
Muutamia pilviä 4600 ft:n korkeudessa
Tulossa
22. päivästä klo 07 UTC - 22. päivään klo 10 UTC
Tuuli 10 kn lounaasta
Tulossa
22. päivästä klo 16 UTC - 22. päivään klo 19 UTC
Tuuli 2 kn eri suunnista

TAF: DAAJ 220500Z 2206/2306 12006KT 9999 FEW046 BECMG 2207/2210 22010KT BECMG 2216/2219 VRB02KT

Säähavainnot ja -ennusteet yli 4000 lentoasemalta (METAR- ja TAF-raportit).

Käytössä olevat sääasemat on merkitty karttaan keltaisilla ja punaisilla pisteillä.

Aseta hiiri pisteen päälle nähdäksesi sääaseman nimen.

Klikkaa sitten nähdäksesi säähavainnot ja -ennusteet.

Kartan vaihtaminen: klikkaa mustalla rastilla varustettuja vihreitä pisteitä, niin voit zoomata sisään; viivalla varustettua vihreää pistettä, niin voit zoomata ulos tai vihreitä nuolia, niin pääset viereisille kartoille.


METAR-TAF: